Time,TemperatureF,DewpointF,PressureIn,WindDirection,WindDirectionDegrees,WindSpeedMPH,WindSpeedGustMPH,Humidity,HourlyPrecipIn,Conditions,Clouds,dailyrainin,SoftwareType,DateUTC
2013-02-13 00:11:00,45.9,39.1,30.20,WNW,292,4.7,-999.0,77,-99.99,,,0.00,Acu-Link.com,2013-02-13 08:11:00,
2013-02-13 00:26:00,45.9,39.8,30.20,West,270,5.8,-999.0,79,-99.99,,,0.00,Acu-Link.com,2013-02-13 08:26:00,
2013-02-13 00:41:00,45.9,40.1,30.20,WNW,292,4.7,-999.0,80,-99.99,,,0.00,Acu-Link.com,2013-02-13 08:41:00,
2013-02-13 00:57:00,46.4,39.9,30.20,West,270,3.7,-999.0,78,-99.99,,,0.00,Acu-Link.com,2013-02-13 08:57:00,
2013-02-13 01:15:00,46.4,39.9,30.19,SW,225,3.2,-999.0,78,-99.99,,,0.00,Acu-Link.com,2013-02-13 09:15:00,
2013-02-13 01:30:00,46.6,40.1,30.20,West,270,4.2,-999.0,78,-99.99,,,0.00,Acu-Link.com,2013-02-13 09:30:00,
2013-02-13 01:46:00,46.6,39.4,30.19,West,270,3.7,-999.0,76,-99.99,,,0.00,Acu-Link.com,2013-02-13 09:46:00,
2013-02-13 02:01:00,46.9,39.1,30.19,WSW,247,4.7,-999.0,74,-99.99,,,0.00,Acu-Link.com,2013-02-13 10:01:00,
2013-02-13 02:16:00,48.0,39.8,30.19,West,270,5.3,-999.0,73,-99.99,,,0.00,Acu-Link.com,2013-02-13 10:16:00,
2013-02-13 02:31:00,48.4,39.8,30.19,West,270,0.0,-999.0,72,-99.99,,,0.00,Acu-Link.com,2013-02-13 10:31:00,
2013-02-13 02:47:00,47.8,39.2,30.18,WSW,247,3.2,-999.0,72,-99.99,,,0.00,Acu-Link.com,2013-02-13 10:47:00,
2013-02-13 03:02:00,47.3,39.1,30.18,WSW,247,1.7,-999.0,73,-99.99,,,0.00,Acu-Link.com,2013-02-13 11:02:00,
2013-02-13 03:17:00,46.2,39.4,30.18,NE,45,3.2,-999.0,77,-99.99,,,0.00,Acu-Link.com,2013-02-13 11:17:00,
2013-02-13 03:32:00,45.7,39.6,30.17,West,270,0.0,-999.0,79,-99.99,,,0.00,Acu-Link.com,2013-02-13 11:32:00,
2013-02-13 03:48:00,45.9,39.4,30.17,NE,45,0.0,-999.0,78,-99.99,,,0.00,Acu-Link.com,2013-02-13 11:48:00,
2013-02-13 04:03:00,45.7,38.9,30.17,NE,45,0.0,-999.0,77,-99.99,,,0.00,Acu-Link.com,2013-02-13 12:03:00,
2013-02-13 04:18:00,47.8,37.8,30.17,NE,45,2.7,-999.0,68,-99.99,,,0.00,Acu-Link.com,2013-02-13 12:18:00,
2013-02-13 04:33:00,47.3,37.3,30.18,South,180,0.0,-999.0,68,-99.99,,,0.00,Acu-Link.com,2013-02-13 12:33:00,
2013-02-13 04:48:00,46.8,37.5,30.18,West,270,0.0,-999.0,70,-99.99,,,0.00,Acu-Link.com,2013-02-13 12:48:00,
2013-02-13 05:04:00,46.6,36.2,30.18,NE,45,1.7,-999.0,67,-99.99,,,0.00,Acu-Link.com,2013-02-13 13:04:00,
2013-02-13 05:19:00,46.2,36.6,30.18,NE,45,2.2,-999.0,69,-99.99,,,0.00,Acu-Link.com,2013-02-13 13:19:00,
2013-02-13 05:34:00,45.5,37.4,30.18,South,180,0.0,-999.0,73,-99.99,,,0.00,Acu-Link.com,2013-02-13 13:34:00,
2013-02-13 05:50:00,45.9,38.1,30.18,NE,45,3.2,-999.0,74,-99.99,,,0.00,Acu-Link.com,2013-02-13 13:50:00,
2013-02-13 06:05:00,45.3,37.9,30.18,NE,45,2.2,-999.0,75,-99.99,,,0.00,Acu-Link.com,2013-02-13 14:05:00,
2013-02-13 06:20:00,44.6,36.8,30.18,West,270,0.0,-999.0,74,-99.99,,,0.00,Acu-Link.com,2013-02-13 14:20:00,
2013-02-13 06:35:00,44.8,36.7,30.18,NE,45,2.2,-999.0,73,-99.99,,,0.00,Acu-Link.com,2013-02-13 14:35:00,
2013-02-13 06:51:00,44.6,36.5,30.19,SW,225,0.0,-999.0,73,-99.99,,,0.00,Acu-Link.com,2013-02-13 14:51:00,
2013-02-13 07:06:00,45.9,36.7,30.19,WNW,292,1.7,-999.0,70,-99.99,,,0.00,Acu-Link.com,2013-02-13 15:06:00,
2013-02-13 07:21:00,45.5,36.7,30.19,WNW,292,0.0,-999.0,71,-99.99,,,0.00,Acu-Link.com,2013-02-13 15:21:00,
2013-02-13 07:36:00,46.4,35.7,30.19,NE,45,0.0,-999.0,66,-99.99,,,0.00,Acu-Link.com,2013-02-13 15:36:00,
2013-02-13 07:52:00,47.1,37.5,30.19,SW,225,4.2,-999.0,69,-99.99,,,0.00,Acu-Link.com,2013-02-13 15:52:00,
2013-02-13 08:07:00,48.0,38.3,30.19,West,270,0.0,-999.0,69,-99.99,,,0.00,Acu-Link.com,2013-02-13 16:07:00,
2013-02-13 08:22:00,48.9,38.8,30.19,SW,225,1.7,-999.0,68,-99.99,,,0.00,Acu-Link.com,2013-02-13 16:22:00,
2013-02-13 08:37:00,50.5,38.4,30.19,West,270,0.0,-999.0,63,-99.99,,,0.00,Acu-Link.com,2013-02-13 16:37:00,
2013-02-13 08:52:00,52.7,40.1,30.20,SSW,202,0.0,-999.0,62,-99.99,,,0.00,Acu-Link.com,2013-02-13 16:52:00,
2013-02-13 09:08:00,57.4,41.4,30.20,WNW,292,2.2,-999.0,55,-99.99,,,0.00,Acu-Link.com,2013-02-13 17:08:00,
2013-02-13 09:23:00,60.1,41.4,30.20,SSW,202,4.2,-999.0,50,-99.99,,,0.00,Acu-Link.com,2013-02-13 17:23:00,
2013-02-13 09:38:00,60.3,40.5,30.20,West,270,4.2,-999.0,48,-99.99,,,0.00,Acu-Link.com,2013-02-13 17:38:00,
2013-02-13 09:53:00,60.3,41.1,30.20,NW,315,3.7,-999.0,49,-99.99,,,0.00,Acu-Link.com,2013-02-13 17:53:00,
2013-02-13 10:09:00,63.3,42.2,30.21,West,270,2.7,-999.0,46,-99.99,,,0.00,Acu-Link.com,2013-02-13 18:09:00,
2013-02-13 10:24:00,64.2,40.6,30.20,WNW,292,2.7,-999.0,42,-99.99,,,0.00,Acu-Link.com,2013-02-13 18:24:00,
2013-02-13 10:39:00,66.7,41.6,30.20,West,270,4.7,-999.0,40,-99.99,,,0.00,Acu-Link.com,2013-02-13 18:39:00,
2013-02-13 10:54:00,65.7,42.0,30.20,SSW,202,4.2,-999.0,42,-99.99,,,0.00,Acu-Link.com,2013-02-13 18:54:00,
2013-02-13 11:10:00,65.3,42.2,30.20,SSE,157,6.8,-999.0,43,-99.99,,,0.00,Acu-Link.com,2013-02-13 19:10:00,
2013-02-13 11:25:00,66.4,42.0,30.20,NW,315,1.7,-999.0,41,-99.99,,,0.00,Acu-Link.com,2013-02-13 19:25:00,
2013-02-13 11:40:00,67.6,43.7,30.18,NW,315,8.3,-999.0,42,-99.99,,,0.00,Acu-Link.com,2013-02-13 19:40:00,
2013-02-13 11:55:00,66.0,43.5,30.18,West,270,4.7,-999.0,44,-99.99,,,0.00,Acu-Link.com,2013-02-13 19:55:00,
2013-02-13 12:10:00,63.7,42.5,30.17,West,270,11.4,-999.0,46,-99.99,,,0.00,Acu-Link.com,2013-02-13 20:10:00,
2013-02-13 12:26:00,64.9,43.0,30.16,SE,135,6.3,-999.0,45,-99.99,,,0.00,Acu-Link.com,2013-02-13 20:26:00,
2013-02-13 12:41:00,64.9,41.9,30.16,SSE,157,9.4,-999.0,43,-99.99,,,0.00,Acu-Link.com,2013-02-13 20:41:00,
2013-02-13 12:56:00,64.4,41.4,30.15,West,270,6.8,-999.0,43,-99.99,,,0.00,Acu-Link.com,2013-02-13 20:56:00,
2013-02-13 13:40:00,64.8,41.2,30.15,West,270,9.4,-999.0,42,-99.99,,,0.00,Acu-Link.com,2013-02-13 21:40:00,
2013-02-13 13:55:00,66.4,38.6,30.12,WSW,247,6.8,-999.0,36,-99.99,,,0.00,Acu-Link.com,2013-02-13 21:55:00,
2013-02-13 14:11:00,70.0,40.3,30.12,WNW,292,8.3,-999.0,34,-99.99,,,0.00,Acu-Link.com,2013-02-13 22:11:00,
2013-02-13 14:26:00,68.9,40.1,30.11,WNW,292,5.8,-999.0,35,-99.99,,,0.00,Acu-Link.com,2013-02-13 22:26:00,
2013-02-13 14:41:00,70.9,41.1,30.11,West,270,3.2,-999.0,34,-99.99,,,0.00,Acu-Link.com,2013-02-13 22:41:00,
2013-02-13 14:56:00,71.6,41.0,30.10,West,270,9.4,-999.0,33,-99.99,,,0.00,Acu-Link.com,2013-02-13 22:56:00,
2013-02-13 15:12:00,70.7,40.2,30.10,WNW,292,5.8,-999.0,33,-99.99,,,0.00,Acu-Link.com,2013-02-13 23:12:00,
2013-02-13 15:27:00,71.4,42.3,30.09,West,270,4.7,-999.0,35,-99.99,,,0.00,Acu-Link.com,2013-02-13 23:27:00,
2013-02-13 15:43:00,69.4,42.7,30.09,WSW,247,11.4,-999.0,38,-99.99,,,0.00,Acu-Link.com,2013-02-13 23:43:00,
2013-02-13 15:58:00,69.4,44.0,30.09,West,270,9.4,-999.0,40,-99.99,,,0.00,Acu-Link.com,2013-02-13 23:58:00,
2013-02-13 16:14:00,67.8,43.9,30.08,West,270,5.8,-999.0,42,-99.99,,,0.00,Acu-Link.com,2013-02-14 00:14:00,
2013-02-13 16:29:00,66.6,44.0,30.08,West,270,6.8,-999.0,44,-99.99,,,0.00,Acu-Link.com,2013-02-14 00:29:00,
2013-02-13 16:44:00,65.7,43.8,30.08,South,180,5.8,-999.0,45,-99.99,,,0.00,Acu-Link.com,2013-02-14 00:44:00,
2013-02-13 16:59:00,63.9,43.3,30.08,ESE,112,6.3,-999.0,47,-99.99,,,0.00,Acu-Link.com,2013-02-14 00:59:00,
2013-02-13 17:14:00,63.3,43.8,30.08,SW,225,4.7,-999.0,49,-99.99,,,0.00,Acu-Link.com,2013-02-14 01:14:00,
2013-02-13 17:30:00,61.3,43.5,30.07,WSW,247,5.8,-999.0,52,-99.99,,,0.00,Acu-Link.com,2013-02-14 01:30:00,
2013-02-13 17:45:00,59.4,43.2,30.08,SW,225,3.7,-999.0,55,-99.99,,,0.00,Acu-Link.com,2013-02-14 01:45:00,
2013-02-13 18:00:00,57.9,42.8,30.07,West,270,2.2,-999.0,57,-99.99,,,0.00,Acu-Link.com,2013-02-14 02:00:00,
2013-02-13 18:15:00,57.0,42.8,30.08,NE,45,2.2,-999.0,59,-99.99,,,0.00,Acu-Link.com,2013-02-14 02:15:00,
2013-02-13 18:31:00,55.8,43.8,30.08,NNE,22,2.2,-999.0,64,-99.99,,,0.00,Acu-Link.com,2013-02-14 02:31:00,
2013-02-13 18:46:00,54.0,44.4,30.08,NE,45,2.7,-999.0,70,-99.99,,,0.00,Acu-Link.com,2013-02-14 02:46:00,
2013-02-13 19:01:00,53.8,44.2,30.08,NE,45,3.2,-999.0,70,-99.99,,,0.00,Acu-Link.com,2013-02-14 03:01:00,
2013-02-13 19:16:00,52.9,43.4,30.08,ENE,67,3.7,-999.0,70,-99.99,,,0.00,Acu-Link.com,2013-02-14 03:16:00,
2013-02-13 19:32:00,53.1,42.8,30.08,NE,45,2.7,-999.0,68,-99.99,,,0.00,Acu-Link.com,2013-02-14 03:32:00,
2013-02-13 19:48:00,53.1,42.4,30.08,WSW,247,4.2,-999.0,67,-99.99,,,0.00,Acu-Link.com,2013-02-14 03:48:00,
2013-02-13 20:04:00,53.6,42.5,30.08,NE,45,2.7,-999.0,66,-99.99,,,0.00,Acu-Link.com,2013-02-14 04:04:00,
2013-02-13 20:19:00,54.0,42.9,30.08,NE,45,3.2,-999.0,66,-99.99,,,0.00,Acu-Link.com,2013-02-14 04:19:00,
2013-02-13 20:34:00,54.0,42.1,30.08,SSW,202,0.0,-999.0,64,-99.99,,,0.00,Acu-Link.com,2013-02-14 04:34:00,
2013-02-13 20:49:00,52.7,42.1,30.09,NNE,22,0.0,-999.0,67,-99.99,,,0.00,Acu-Link.com,2013-02-14 04:49:00,
2013-02-13 21:04:00,51.8,41.6,30.08,West,270,0.0,-999.0,68,-99.99,,,0.00,Acu-Link.com,2013-02-14 05:04:00,
2013-02-13 21:20:00,51.4,41.9,30.08,West,270,0.0,-999.0,70,-99.99,,,0.00,Acu-Link.com,2013-02-14 05:20:00,
2013-02-13 21:35:00,52.5,41.9,30.08,ENE,67,3.7,-999.0,67,-99.99,,,0.00,Acu-Link.com,2013-02-14 05:35:00,
2013-02-13 21:50:00,51.3,42.2,30.09,NE,45,3.2,-999.0,71,-99.99,,,0.00,Acu-Link.com,2013-02-14 05:50:00,
2013-02-13 22:06:00,50.9,42.2,30.09,NE,45,2.2,-999.0,72,-99.99,,,0.00,Acu-Link.com,2013-02-14 06:06:00,
2013-02-13 22:22:00,51.1,41.7,30.09,ESE,112,4.2,-999.0,70,-99.99,,,0.00,Acu-Link.com,2013-02-14 06:22:00,
2013-02-13 22:37:00,51.4,41.9,30.09,ENE,67,1.7,-999.0,70,-99.99,,,0.00,Acu-Link.com,2013-02-14 06:37:00,
2013-02-13 22:52:00,51.8,42.0,30.09,ENE,67,2.7,-999.0,69,-99.99,,,0.00,Acu-Link.com,2013-02-14 06:52:00,
2013-02-13 23:07:00,51.8,42.3,30.09,SW,225,3.2,-999.0,70,-99.99,,,0.00,Acu-Link.com,2013-02-14 07:07:00,
2013-02-13 23:23:00,53.4,43.1,30.09,WSW,247,4.7,-999.0,68,-99.99,,,0.00,Acu-Link.com,2013-02-14 07:23:00,
2013-02-13 23:38:00,54.0,42.5,30.09,SSE,157,3.7,-999.0,65,-99.99,,,0.00,Acu-Link.com,2013-02-14 07:38:00,
2013-02-13 23:53:00,54.7,41.1,30.09,SSE,157,0.0,-999.0,60,-99.99,,,0.00,Acu-Link.com,2013-02-14 07:53:00,